sensor_id;sensor_type;location;lat;lon;timestamp;P1;durP1;ratioP1;P2;durP2;ratioP2
14078;SDS011;7115;50.150;8.568;2022-11-20T00:00:17;19.37;;;11.60;;
14078;SDS011;7115;50.150;8.568;2022-11-20T00:02:44;19.10;;;11.73;;
14078;SDS011;7115;50.150;8.568;2022-11-20T00:05:11;19.77;;;11.93;;
14078;SDS011;7115;50.150;8.568;2022-11-20T00:07:37;20.43;;;12.30;;
14078;SDS011;7115;50.150;8.568;2022-11-20T00:10:05;19.67;;;12.00;;
14078;SDS011;7115;50.150;8.568;2022-11-20T00:12:33;19.87;;;12.20;;
14078;SDS011;7115;50.150;8.568;2022-11-20T00:15:00;20.30;;;11.97;;
14078;SDS011;7115;50.150;8.568;2022-11-20T00:17:27;19.57;;;11.27;;
14078;SDS011;7115;50.150;8.568;2022-11-20T00:19:54;19.53;;;12.47;;
14078;SDS011;7115;50.150;8.568;2022-11-20T00:22:21;18.63;;;12.17;;
14078;SDS011;7115;50.150;8.568;2022-11-20T00:24:48;21.17;;;12.17;;
14078;SDS011;7115;50.150;8.568;2022-11-20T00:27:15;18.63;;;12.67;;
14078;SDS011;7115;50.150;8.568;2022-11-20T00:29:44;20.10;;;11.80;;
14078;SDS011;7115;50.150;8.568;2022-11-20T00:32:11;19.90;;;12.07;;
14078;SDS011;7115;50.150;8.568;2022-11-20T00:34:38;19.63;;;12.80;;
14078;SDS011;7115;50.150;8.568;2022-11-20T00:37:05;19.57;;;11.77;;
14078;SDS011;7115;50.150;8.568;2022-11-20T00:39:32;18.63;;;11.47;;
14078;SDS011;7115;50.150;8.568;2022-11-20T00:41:59;19.87;;;11.67;;
14078;SDS011;7115;50.150;8.568;2022-11-20T00:44:26;17.80;;;11.33;;
14078;SDS011;7115;50.150;8.568;2022-11-20T00:46:54;18.50;;;12.00;;
14078;SDS011;7115;50.150;8.568;2022-11-20T00:49:21;19.83;;;12.07;;
14078;SDS011;7115;50.150;8.568;2022-11-20T00:51:48;19.10;;;11.80;;
14078;SDS011;7115;50.150;8.568;2022-11-20T00:54:15;19.77;;;12.37;;
14078;SDS011;7115;50.150;8.568;2022-11-20T00:56:43;20.30;;;12.13;;
14078;SDS011;7115;50.150;8.568;2022-11-20T00:59:10;21.83;;;12.23;;
14078;SDS011;7115;50.150;8.568;2022-11-20T01:01:37;18.43;;;11.97;;
14078;SDS011;7115;50.150;8.568;2022-11-20T01:04:06;22.07;;;12.43;;
14078;SDS011;7115;50.150;8.568;2022-11-20T01:06:34;17.97;;;11.60;;
14078;SDS011;7115;50.150;8.568;2022-11-20T01:09:03;19.13;;;11.70;;
14078;SDS011;7115;50.150;8.568;2022-11-20T01:11:32;20.37;;;12.43;;
14078;SDS011;7115;50.150;8.568;2022-11-20T01:14:01;20.70;;;12.47;;
14078;SDS011;7115;50.150;8.568;2022-11-20T01:16:30;17.67;;;11.67;;
14078;SDS011;7115;50.150;8.568;2022-11-20T01:19:00;21.13;;;12.77;;
14078;SDS011;7115;50.150;8.568;2022-11-20T01:21:31;23.10;;;12.77;;
14078;SDS011;7115;50.150;8.568;2022-11-20T01:23:59;21.23;;;12.53;;
14078;SDS011;7115;50.150;8.568;2022-11-20T01:26:28;23.70;;;13.73;;
14078;SDS011;7115;50.150;8.568;2022-11-20T01:28:57;22.10;;;12.97;;
14078;SDS011;7115;50.150;8.568;2022-11-20T01:31:25;25.23;;;13.97;;
14078;SDS011;7115;50.150;8.568;2022-11-20T01:33:54;21.90;;;12.47;;
14078;SDS011;7115;50.150;8.568;2022-11-20T01:36:23;21.80;;;13.03;;
14078;SDS011;7115;50.150;8.568;2022-11-20T01:38:53;20.10;;;11.87;;
14078;SDS011;7115;50.150;8.568;2022-11-20T01:41:21;21.33;;;12.10;;
14078;SDS011;7115;50.150;8.568;2022-11-20T01:44:08;21.20;;;13.57;;
14078;SDS011;7115;50.150;8.568;2022-11-20T01:46:38;22.47;;;13.03;;
14078;SDS011;7115;50.150;8.568;2022-11-20T01:49:10;20.57;;;13.00;;
14078;SDS011;7115;50.150;8.568;2022-11-20T01:51:44;22.63;;;13.33;;
14078;SDS011;7115;50.150;8.568;2022-11-20T01:54:17;23.30;;;13.70;;
14078;SDS011;7115;50.150;8.568;2022-11-20T01:56:46;20.73;;;12.30;;
14078;SDS011;7115;50.150;8.568;2022-11-20T01:59:15;21.87;;;13.00;;
14078;SDS011;7115;50.150;8.568;2022-11-20T02:01:44;22.90;;;12.93;;
14078;SDS011;7115;50.150;8.568;2022-11-20T02:04:11;21.03;;;12.73;;
14078;SDS011;7115;50.150;8.568;2022-11-20T02:06:40;20.40;;;13.17;;
14078;SDS011;7115;50.150;8.568;2022-11-20T02:09:12;20.27;;;12.90;;
14078;SDS011;7115;50.150;8.568;2022-11-20T02:11:41;22.23;;;13.03;;
14078;SDS011;7115;50.150;8.568;2022-11-20T02:14:08;24.07;;;13.67;;
14078;SDS011;7115;50.150;8.568;2022-11-20T02:16:37;22.50;;;13.00;;
14078;SDS011;7115;50.150;8.568;2022-11-20T02:19:12;20.50;;;12.83;;
14078;SDS011;7115;50.150;8.568;2022-11-20T02:21:46;25.70;;;13.87;;
14078;SDS011;7115;50.150;8.568;2022-11-20T02:24:21;21.03;;;12.80;;
14078;SDS011;7115;50.150;8.568;2022-11-20T02:26:49;25.97;;;14.00;;
14078;SDS011;7115;50.150;8.568;2022-11-20T02:29:19;22.47;;;13.97;;
14078;SDS011;7115;50.150;8.568;2022-11-20T02:31:51;23.20;;;13.50;;
14078;SDS011;7115;50.150;8.568;2022-11-20T02:34:20;22.60;;;13.70;;
14078;SDS011;7115;50.150;8.568;2022-11-20T02:36:47;25.13;;;14.33;;
14078;SDS011;7115;50.150;8.568;2022-11-20T02:39:15;25.20;;;14.37;;
14078;SDS011;7115;50.150;8.568;2022-11-20T02:41:44;24.00;;;14.90;;
14078;SDS011;7115;50.150;8.568;2022-11-20T02:44:12;22.67;;;13.70;;
14078;SDS011;7115;50.150;8.568;2022-11-20T02:46:38;25.87;;;14.20;;
14078;SDS011;7115;50.150;8.568;2022-11-20T02:49:06;21.77;;;13.70;;
14078;SDS011;7115;50.150;8.568;2022-11-20T02:51:32;23.73;;;13.53;;
14078;SDS011;7115;50.150;8.568;2022-11-20T02:53:59;30.33;;;16.40;;
14078;SDS011;7115;50.150;8.568;2022-11-20T02:56:27;22.73;;;13.77;;
14078;SDS011;7115;50.150;8.568;2022-11-20T02:58:55;24.47;;;14.00;;
14078;SDS011;7115;50.150;8.568;2022-11-20T03:01:22;24.93;;;13.93;;
14078;SDS011;7115;50.150;8.568;2022-11-20T03:03:49;26.37;;;14.50;;
14078;SDS011;7115;50.150;8.568;2022-11-20T03:06:16;26.73;;;14.40;;
14078;SDS011;7115;50.150;8.568;2022-11-20T03:08:43;23.47;;;13.30;;
14078;SDS011;7115;50.150;8.568;2022-11-20T03:11:10;25.40;;;13.00;;
14078;SDS011;7115;50.150;8.568;2022-11-20T03:13:37;19.83;;;12.80;;
14078;SDS011;7115;50.150;8.568;2022-11-20T03:16:07;20.57;;;12.00;;
14078;SDS011;7115;50.150;8.568;2022-11-20T03:18:35;22.00;;;13.77;;
14078;SDS011;7115;50.150;8.568;2022-11-20T03:21:02;21.70;;;14.00;;
14078;SDS011;7115;50.150;8.568;2022-11-20T03:23:30;24.47;;;14.33;;
14078;SDS011;7115;50.150;8.568;2022-11-20T03:26:07;21.77;;;12.83;;
14078;SDS011;7115;50.150;8.568;2022-11-20T03:28:39;22.70;;;14.10;;
14078;SDS011;7115;50.150;8.568;2022-11-20T03:31:09;22.97;;;13.60;;
14078;SDS011;7115;50.150;8.568;2022-11-20T03:33:37;25.27;;;14.70;;
14078;SDS011;7115;50.150;8.568;2022-11-20T03:36:05;22.27;;;13.50;;
14078;SDS011;7115;50.150;8.568;2022-11-20T03:38:33;23.57;;;14.27;;
14078;SDS011;7115;50.150;8.568;2022-11-20T03:41:01;22.00;;;13.13;;
14078;SDS011;7115;50.150;8.568;2022-11-20T03:43:29;22.37;;;13.60;;
14078;SDS011;7115;50.150;8.568;2022-11-20T03:45:56;24.13;;;15.00;;
14078;SDS011;7115;50.150;8.568;2022-11-20T03:48:25;25.53;;;15.00;;
14078;SDS011;7115;50.150;8.568;2022-11-20T03:50:53;24.60;;;13.77;;
14078;SDS011;7115;50.150;8.568;2022-11-20T03:53:32;28.47;;;15.47;;
14078;SDS011;7115;50.150;8.568;2022-11-20T03:55:59;23.13;;;14.73;;
14078;SDS011;7115;50.150;8.568;2022-11-20T03:58:26;25.97;;;15.00;;
14078;SDS011;7115;50.150;8.568;2022-11-20T04:00:53;25.43;;;14.37;;
14078;SDS011;7115;50.150;8.568;2022-11-20T04:03:19;23.97;;;13.53;;
14078;SDS011;7115;50.150;8.568;2022-11-20T04:05:48;23.23;;;13.27;;
14078;SDS011;7115;50.150;8.568;2022-11-20T04:08:15;25.63;;;13.93;;
14078;SDS011;7115;50.150;8.568;2022-11-20T04:10:42;22.00;;;13.93;;
14078;SDS011;7115;50.150;8.568;2022-11-20T04:13:08;26.57;;;14.10;;
14078;SDS011;7115;50.150;8.568;2022-11-20T04:15:35;26.43;;;14.00;;
14078;SDS011;7115;50.150;8.568;2022-11-20T04:18:03;26.07;;;14.70;;
14078;SDS011;7115;50.150;8.568;2022-11-20T04:20:31;22.83;;;13.77;;
14078;SDS011;7115;50.150;8.568;2022-11-20T04:22:59;25.73;;;14.77;;
14078;SDS011;7115;50.150;8.568;2022-11-20T04:25:26;24.80;;;13.80;;
14078;SDS011;7115;50.150;8.568;2022-11-20T04:27:53;22.87;;;13.10;;
14078;SDS011;7115;50.150;8.568;2022-11-20T04:30:20;21.70;;;13.27;;
14078;SDS011;7115;50.150;8.568;2022-11-20T04:32:47;31.67;;;15.80;;
14078;SDS011;7115;50.150;8.568;2022-11-20T04:35:14;25.13;;;12.77;;
14078;SDS011;7115;50.150;8.568;2022-11-20T04:37:41;26.07;;;13.43;;
14078;SDS011;7115;50.150;8.568;2022-11-20T04:40:10;26.10;;;12.93;;
14078;SDS011;7115;50.150;8.568;2022-11-20T04:42:37;23.43;;;12.90;;
14078;SDS011;7115;50.150;8.568;2022-11-20T04:45:05;20.73;;;12.73;;
14078;SDS011;7115;50.150;8.568;2022-11-20T04:47:32;21.17;;;12.33;;
14078;SDS011;7115;50.150;8.568;2022-11-20T04:49:59;21.43;;;12.70;;
14078;SDS011;7115;50.150;8.568;2022-11-20T04:52:26;22.30;;;13.90;;
14078;SDS011;7115;50.150;8.568;2022-11-20T04:54:53;20.50;;;12.17;;
14078;SDS011;7115;50.150;8.568;2022-11-20T04:57:22;19.80;;;12.07;;
14078;SDS011;7115;50.150;8.568;2022-11-20T04:59:48;24.53;;;12.80;;
14078;SDS011;7115;50.150;8.568;2022-11-20T05:02:16;24.93;;;12.83;;
14078;SDS011;7115;50.150;8.568;2022-11-20T05:04:42;22.37;;;12.77;;
14078;SDS011;7115;50.150;8.568;2022-11-20T05:07:09;22.17;;;12.30;;
14078;SDS011;7115;50.150;8.568;2022-11-20T05:09:36;23.73;;;13.40;;
14078;SDS011;7115;50.150;8.568;2022-11-20T05:12:03;23.10;;;13.67;;
14078;SDS011;7115;50.150;8.568;2022-11-20T05:14:34;21.53;;;13.03;;
14078;SDS011;7115;50.150;8.568;2022-11-20T05:17:01;23.33;;;13.47;;
14078;SDS011;7115;50.150;8.568;2022-11-20T05:19:28;22.30;;;13.23;;
14078;SDS011;7115;50.150;8.568;2022-11-20T05:21:55;22.07;;;12.60;;
14078;SDS011;7115;50.150;8.568;2022-11-20T05:24:21;21.77;;;13.63;;
14078;SDS011;7115;50.150;8.568;2022-11-20T05:26:49;23.33;;;12.93;;
14078;SDS011;7115;50.150;8.568;2022-11-20T05:29:16;23.37;;;13.37;;
14078;SDS011;7115;50.150;8.568;2022-11-20T05:31:44;23.93;;;13.33;;
14078;SDS011;7115;50.150;8.568;2022-11-20T05:34:11;20.67;;;13.23;;
14078;SDS011;7115;50.150;8.568;2022-11-20T05:36:38;22.27;;;12.40;;
14078;SDS011;7115;50.150;8.568;2022-11-20T05:39:05;22.63;;;13.03;;
14078;SDS011;7115;50.150;8.568;2022-11-20T05:41:32;24.97;;;14.27;;
14078;SDS011;7115;50.150;8.568;2022-11-20T05:43:59;26.47;;;13.67;;
14078;SDS011;7115;50.150;8.568;2022-11-20T05:46:26;23.67;;;12.77;;
14078;SDS011;7115;50.150;8.568;2022-11-20T05:48:56;22.93;;;13.97;;
14078;SDS011;7115;50.150;8.568;2022-11-20T05:51:26;23.43;;;13.33;;
14078;SDS011;7115;50.150;8.568;2022-11-20T05:53:53;24.87;;;13.50;;
14078;SDS011;7115;50.150;8.568;2022-11-20T05:56:22;25.93;;;14.27;;
14078;SDS011;7115;50.150;8.568;2022-11-20T05:58:49;24.10;;;13.50;;
14078;SDS011;7115;50.150;8.568;2022-11-20T06:01:17;25.80;;;14.97;;
14078;SDS011;7115;50.150;8.568;2022-11-20T06:03:45;29.67;;;14.17;;
14078;SDS011;7115;50.150;8.568;2022-11-20T06:06:16;22.70;;;13.40;;
14078;SDS011;7115;50.150;8.568;2022-11-20T06:08:44;28.60;;;14.83;;
14078;SDS011;7115;50.150;8.568;2022-11-20T06:11:12;23.67;;;14.50;;
14078;SDS011;7115;50.150;8.568;2022-11-20T06:13:40;28.63;;;15.80;;
14078;SDS011;7115;50.150;8.568;2022-11-20T06:16:08;27.57;;;15.70;;
14078;SDS011;7115;50.150;8.568;2022-11-20T06:18:36;26.40;;;15.10;;
14078;SDS011;7115;50.150;8.568;2022-11-20T06:21:05;30.03;;;16.83;;
14078;SDS011;7115;50.150;8.568;2022-11-20T06:23:34;28.63;;;16.80;;
14078;SDS011;7115;50.150;8.568;2022-11-20T06:26:02;26.27;;;14.70;;
14078;SDS011;7115;50.150;8.568;2022-11-20T06:28:30;26.70;;;15.43;;
14078;SDS011;7115;50.150;8.568;2022-11-20T06:30:57;24.00;;;13.83;;
14078;SDS011;7115;50.150;8.568;2022-11-20T06:33:24;26.37;;;14.43;;
14078;SDS011;7115;50.150;8.568;2022-11-20T06:35:51;29.77;;;15.77;;
14078;SDS011;7115;50.150;8.568;2022-11-20T06:38:27;29.60;;;14.50;;
14078;SDS011;7115;50.150;8.568;2022-11-20T06:40:56;25.77;;;14.57;;
14078;SDS011;7115;50.150;8.568;2022-11-20T06:43:23;25.27;;;14.57;;
14078;SDS011;7115;50.150;8.568;2022-11-20T06:45:51;28.07;;;14.87;;
14078;SDS011;7115;50.150;8.568;2022-11-20T06:48:18;30.80;;;16.93;;
14078;SDS011;7115;50.150;8.568;2022-11-20T06:50:46;28.23;;;15.63;;
14078;SDS011;7115;50.150;8.568;2022-11-20T06:53:13;27.63;;;15.73;;
14078;SDS011;7115;50.150;8.568;2022-11-20T06:55:41;31.57;;;16.87;;
14078;SDS011;7115;50.150;8.568;2022-11-20T06:58:11;33.17;;;16.97;;
14078;SDS011;7115;50.150;8.568;2022-11-20T07:00:41;30.87;;;16.50;;
14078;SDS011;7115;50.150;8.568;2022-11-20T07:03:09;30.47;;;17.07;;
14078;SDS011;7115;50.150;8.568;2022-11-20T07:05:37;34.20;;;16.50;;
14078;SDS011;7115;50.150;8.568;2022-11-20T07:08:05;33.77;;;18.30;;
14078;SDS011;7115;50.150;8.568;2022-11-20T07:10:32;36.90;;;17.83;;
14078;SDS011;7115;50.150;8.568;2022-11-20T07:12:59;36.53;;;18.10;;
14078;SDS011;7115;50.150;8.568;2022-11-20T07:15:28;37.77;;;17.37;;
14078;SDS011;7115;50.150;8.568;2022-11-20T07:17:57;37.17;;;17.80;;
14078;SDS011;7115;50.150;8.568;2022-11-20T07:20:24;31.03;;;17.83;;
14078;SDS011;7115;50.150;8.568;2022-11-20T07:22:52;38.67;;;19.73;;
14078;SDS011;7115;50.150;8.568;2022-11-20T07:25:20;35.97;;;18.80;;
14078;SDS011;7115;50.150;8.568;2022-11-20T07:27:47;37.03;;;18.67;;
14078;SDS011;7115;50.150;8.568;2022-11-20T07:30:14;32.57;;;18.07;;
14078;SDS011;7115;50.150;8.568;2022-11-20T07:32:43;38.20;;;18.10;;
14078;SDS011;7115;50.150;8.568;2022-11-20T07:35:12;37.83;;;19.17;;
14078;SDS011;7115;50.150;8.568;2022-11-20T07:37:39;41.27;;;19.47;;
14078;SDS011;7115;50.150;8.568;2022-11-20T07:40:06;40.97;;;20.00;;
14078;SDS011;7115;50.150;8.568;2022-11-20T07:42:34;42.73;;;19.77;;
14078;SDS011;7115;50.150;8.568;2022-11-20T07:45:01;41.03;;;21.43;;
14078;SDS011;7115;50.150;8.568;2022-11-20T07:47:28;44.63;;;20.73;;
14078;SDS011;7115;50.150;8.568;2022-11-20T07:49:56;41.57;;;19.47;;
14078;SDS011;7115;50.150;8.568;2022-11-20T07:52:23;40.40;;;20.80;;
14078;SDS011;7115;50.150;8.568;2022-11-20T07:54:50;43.27;;;20.10;;
14078;SDS011;7115;50.150;8.568;2022-11-20T07:57:17;43.23;;;19.93;;
14078;SDS011;7115;50.150;8.568;2022-11-20T07:59:45;38.93;;;20.30;;
14078;SDS011;7115;50.150;8.568;2022-11-20T08:02:12;40.30;;;20.00;;
14078;SDS011;7115;50.150;8.568;2022-11-20T08:04:39;45.50;;;20.67;;
14078;SDS011;7115;50.150;8.568;2022-11-20T08:07:07;40.80;;;20.07;;
14078;SDS011;7115;50.150;8.568;2022-11-20T08:09:34;38.27;;;18.30;;
14078;SDS011;7115;50.150;8.568;2022-11-20T08:12:01;47.97;;;20.90;;
14078;SDS011;7115;50.150;8.568;2022-11-20T08:14:47;37.87;;;18.90;;
14078;SDS011;7115;50.150;8.568;2022-11-20T08:17:13;41.03;;;19.90;;
14078;SDS011;7115;50.150;8.568;2022-11-20T08:19:41;41.37;;;20.43;;
14078;SDS011;7115;50.150;8.568;2022-11-20T08:22:09;37.83;;;18.37;;
14078;SDS011;7115;50.150;8.568;2022-11-20T08:24:36;41.83;;;19.60;;
14078;SDS011;7115;50.150;8.568;2022-11-20T08:27:03;46.37;;;22.27;;
14078;SDS011;7115;50.150;8.568;2022-11-20T08:29:30;40.13;;;18.87;;
14078;SDS011;7115;50.150;8.568;2022-11-20T08:31:57;39.70;;;18.10;;
14078;SDS011;7115;50.150;8.568;2022-11-20T08:34:24;37.70;;;19.20;;
14078;SDS011;7115;50.150;8.568;2022-11-20T08:36:50;40.20;;;20.23;;
14078;SDS011;7115;50.150;8.568;2022-11-20T08:39:19;40.17;;;19.70;;
14078;SDS011;7115;50.150;8.568;2022-11-20T08:41:46;36.20;;;19.10;;
14078;SDS011;7115;50.150;8.568;2022-11-20T08:44:13;38.70;;;20.90;;
14078;SDS011;7115;50.150;8.568;2022-11-20T08:46:40;39.77;;;18.67;;
14078;SDS011;7115;50.150;8.568;2022-11-20T08:49:10;44.27;;;20.20;;
14078;SDS011;7115;50.150;8.568;2022-11-20T08:51:38;42.07;;;19.57;;
14078;SDS011;7115;50.150;8.568;2022-11-20T08:54:05;46.70;;;20.27;;
14078;SDS011;7115;50.150;8.568;2022-11-20T08:56:34;45.00;;;20.27;;
14078;SDS011;7115;50.150;8.568;2022-11-20T08:59:01;47.87;;;21.40;;
14078;SDS011;7115;50.150;8.568;2022-11-20T09:01:48;49.27;;;20.47;;
14078;SDS011;7115;50.150;8.568;2022-11-20T09:04:16;43.03;;;20.40;;
14078;SDS011;7115;50.150;8.568;2022-11-20T09:06:43;41.53;;;20.53;;
14078;SDS011;7115;50.150;8.568;2022-11-20T09:09:09;39.20;;;19.10;;
14078;SDS011;7115;50.150;8.568;2022-11-20T09:11:38;43.03;;;19.50;;
14078;SDS011;7115;50.150;8.568;2022-11-20T09:14:05;40.43;;;18.90;;
14078;SDS011;7115;50.150;8.568;2022-11-20T09:16:32;42.17;;;18.33;;
14078;SDS011;7115;50.150;8.568;2022-11-20T09:18:59;42.00;;;19.30;;
14078;SDS011;7115;50.150;8.568;2022-11-20T09:21:46;42.17;;;20.30;;
14078;SDS011;7115;50.150;8.568;2022-11-20T09:24:13;40.93;;;19.50;;
14078;SDS011;7115;50.150;8.568;2022-11-20T09:26:43;41.10;;;18.83;;
14078;SDS011;7115;50.150;8.568;2022-11-20T09:29:10;36.70;;;18.23;;
14078;SDS011;7115;50.150;8.568;2022-11-20T09:31:37;37.90;;;19.10;;
14078;SDS011;7115;50.150;8.568;2022-11-20T09:34:04;32.83;;;17.20;;
14078;SDS011;7115;50.150;8.568;2022-11-20T09:36:34;33.13;;;18.27;;
14078;SDS011;7115;50.150;8.568;2022-11-20T09:39:01;31.07;;;16.67;;
14078;SDS011;7115;50.150;8.568;2022-11-20T09:44:27;40.00;;;18.97;;
14078;SDS011;7115;50.150;8.568;2022-11-20T09:47:07;36.10;;;17.57;;
14078;SDS011;7115;50.150;8.568;2022-11-20T09:49:42;36.47;;;18.73;;
14078;SDS011;7115;50.150;8.568;2022-11-20T09:52:26;33.60;;;17.07;;
14078;SDS011;7115;50.150;8.568;2022-11-20T09:55:04;36.77;;;17.70;;
14078;SDS011;7115;50.150;8.568;2022-11-20T09:57:37;37.87;;;18.20;;
14078;SDS011;7115;50.150;8.568;2022-11-20T10:00:09;31.47;;;16.33;;
14078;SDS011;7115;50.150;8.568;2022-11-20T10:02:39;29.53;;;15.87;;
14078;SDS011;7115;50.150;8.568;2022-11-20T10:05:11;31.80;;;15.93;;
14078;SDS011;7115;50.150;8.568;2022-11-20T10:07:44;31.53;;;15.57;;
14078;SDS011;7115;50.150;8.568;2022-11-20T10:10:18;32.17;;;16.40;;
14078;SDS011;7115;50.150;8.568;2022-11-20T10:12:53;31.87;;;16.87;;
14078;SDS011;7115;50.150;8.568;2022-11-20T10:15:33;30.93;;;15.90;;
14078;SDS011;7115;50.150;8.568;2022-11-20T10:20:59;36.40;;;17.83;;
14078;SDS011;7115;50.150;8.568;2022-11-20T10:23:40;35.43;;;16.87;;
14078;SDS011;7115;50.150;8.568;2022-11-20T10:26:26;37.10;;;17.17;;
14078;SDS011;7115;50.150;8.568;2022-11-20T10:29:07;37.97;;;18.10;;
14078;SDS011;7115;50.150;8.568;2022-11-20T10:31:39;37.47;;;18.90;;
14078;SDS011;7115;50.150;8.568;2022-11-20T10:34:13;38.90;;;17.80;;
14078;SDS011;7115;50.150;8.568;2022-11-20T10:36:50;40.20;;;19.00;;
14078;SDS011;7115;50.150;8.568;2022-11-20T10:39:24;39.97;;;18.33;;
14078;SDS011;7115;50.150;8.568;2022-11-20T10:41:57;44.27;;;17.80;;
14078;SDS011;7115;50.150;8.568;2022-11-20T10:44:28;40.70;;;17.47;;
14078;SDS011;7115;50.150;8.568;2022-11-20T10:47:21;40.73;;;18.10;;
14078;SDS011;7115;50.150;8.568;2022-11-20T10:49:49;44.87;;;20.43;;
14078;SDS011;7115;50.150;8.568;2022-11-20T10:52:20;44.30;;;20.13;;
14078;SDS011;7115;50.150;8.568;2022-11-20T10:54:54;43.23;;;19.30;;
14078;SDS011;7115;50.150;8.568;2022-11-20T10:57:32;44.23;;;19.60;;
14078;SDS011;7115;50.150;8.568;2022-11-20T11:00:13;43.80;;;19.23;;
14078;SDS011;7115;50.150;8.568;2022-11-20T11:02:44;48.20;;;20.43;;
14078;SDS011;7115;50.150;8.568;2022-11-20T11:05:29;42.23;;;19.90;;
14078;SDS011;7115;50.150;8.568;2022-11-20T11:08:03;41.77;;;19.23;;
14078;SDS011;7115;50.150;8.568;2022-11-20T11:10:36;44.83;;;19.30;;
14078;SDS011;7115;50.150;8.568;2022-11-20T11:13:18;47.97;;;20.93;;
14078;SDS011;7115;50.150;8.568;2022-11-20T11:15:47;49.23;;;22.00;;
14078;SDS011;7115;50.150;8.568;2022-11-20T11:18:22;40.20;;;20.17;;
14078;SDS011;7115;50.150;8.568;2022-11-20T11:20:50;48.40;;;21.23;;
14078;SDS011;7115;50.150;8.568;2022-11-20T11:23:29;41.90;;;20.30;;
14078;SDS011;7115;50.150;8.568;2022-11-20T11:25:59;42.73;;;21.20;;
14078;SDS011;7115;50.150;8.568;2022-11-20T11:28:27;40.40;;;20.83;;
14078;SDS011;7115;50.150;8.568;2022-11-20T11:30:56;46.67;;;21.70;;
14078;SDS011;7115;50.150;8.568;2022-11-20T11:33:23;46.80;;;20.93;;
14078;SDS011;7115;50.150;8.568;2022-11-20T11:35:53;43.73;;;21.03;;
14078;SDS011;7115;50.150;8.568;2022-11-20T11:38:27;47.13;;;21.70;;
14078;SDS011;7115;50.150;8.568;2022-11-20T11:40:56;38.67;;;18.93;;
14078;SDS011;7115;50.150;8.568;2022-11-20T11:43:25;47.83;;;20.50;;
14078;SDS011;7115;50.150;8.568;2022-11-20T11:46:25;37.43;;;19.07;;
14078;SDS011;7115;50.150;8.568;2022-11-20T11:48:57;39.87;;;19.73;;
14078;SDS011;7115;50.150;8.568;2022-11-20T11:51:32;39.70;;;19.37;;
14078;SDS011;7115;50.150;8.568;2022-11-20T11:54:06;42.00;;;20.30;;
14078;SDS011;7115;50.150;8.568;2022-11-20T11:56:41;50.40;;;21.43;;
14078;SDS011;7115;50.150;8.568;2022-11-20T11:59:09;46.03;;;21.63;;
14078;SDS011;7115;50.150;8.568;2022-11-20T12:01:44;44.20;;;21.10;;
14078;SDS011;7115;50.150;8.568;2022-11-20T12:04:17;42.37;;;20.83;;
14078;SDS011;7115;50.150;8.568;2022-11-20T12:06:51;48.93;;;22.10;;
14078;SDS011;7115;50.150;8.568;2022-11-20T12:09:55;42.40;;;21.90;;
14078;SDS011;7115;50.150;8.568;2022-11-20T12:12:24;48.90;;;22.50;;
14078;SDS011;7115;50.150;8.568;2022-11-20T12:14:56;47.27;;;21.63;;
14078;SDS011;7115;50.150;8.568;2022-11-20T12:17:26;48.50;;;21.57;;
14078;SDS011;7115;50.150;8.568;2022-11-20T12:19:53;38.27;;;19.53;;
14078;SDS011;7115;50.150;8.568;2022-11-20T12:22:23;41.97;;;20.67;;
14078;SDS011;7115;50.150;8.568;2022-11-20T12:24:57;37.53;;;19.57;;
14078;SDS011;7115;50.150;8.568;2022-11-20T12:27:33;38.40;;;20.27;;
14078;SDS011;7115;50.150;8.568;2022-11-20T12:30:10;39.07;;;19.97;;
14078;SDS011;7115;50.150;8.568;2022-11-20T12:32:45;43.20;;;19.07;;
14078;SDS011;7115;50.150;8.568;2022-11-20T12:41:43;45.40;;;20.67;;
14078;SDS011;7115;50.150;8.568;2022-11-20T12:44:56;44.87;;;22.10;;
14078;SDS011;7115;50.150;8.568;2022-11-20T12:47:49;41.67;;;20.97;;
14078;SDS011;7115;50.150;8.568;2022-11-20T12:50:28;48.90;;;22.53;;
14078;SDS011;7115;50.150;8.568;2022-11-20T12:53:24;43.33;;;21.13;;
14078;SDS011;7115;50.150;8.568;2022-11-20T12:55:59;43.10;;;21.80;;
14078;SDS011;7115;50.150;8.568;2022-11-20T12:58:34;42.57;;;21.47;;
14078;SDS011;7115;50.150;8.568;2022-11-20T13:01:12;42.17;;;19.70;;
14078;SDS011;7115;50.150;8.568;2022-11-20T13:04:12;39.03;;;19.77;;
14078;SDS011;7115;50.150;8.568;2022-11-20T13:06:49;45.87;;;21.47;;
14078;SDS011;7115;50.150;8.568;2022-11-20T13:09:18;39.47;;;20.83;;
14078;SDS011;7115;50.150;8.568;2022-11-20T13:11:49;39.97;;;20.10;;
14078;SDS011;7115;50.150;8.568;2022-11-20T13:14:25;40.07;;;20.27;;
14078;SDS011;7115;50.150;8.568;2022-11-20T13:16:59;37.60;;;19.13;;
14078;SDS011;7115;50.150;8.568;2022-11-20T13:19:33;39.07;;;20.07;;
14078;SDS011;7115;50.150;8.568;2022-11-20T13:22:00;37.57;;;18.63;;
14078;SDS011;7115;50.150;8.568;2022-11-20T13:24:30;38.03;;;19.50;;
14078;SDS011;7115;50.150;8.568;2022-11-20T13:27:05;36.10;;;19.03;;
14078;SDS011;7115;50.150;8.568;2022-11-20T13:29:47;35.43;;;19.93;;
14078;SDS011;7115;50.150;8.568;2022-11-20T13:32:28;35.50;;;18.83;;
14078;SDS011;7115;50.150;8.568;2022-11-20T13:35:00;35.13;;;19.57;;
14078;SDS011;7115;50.150;8.568;2022-11-20T13:37:31;39.30;;;20.80;;
14078;SDS011;7115;50.150;8.568;2022-11-20T13:40:05;36.97;;;20.13;;
14078;SDS011;7115;50.150;8.568;2022-11-20T13:42:39;36.07;;;18.33;;
14078;SDS011;7115;50.150;8.568;2022-11-20T13:45:11;35.77;;;18.77;;
14078;SDS011;7115;50.150;8.568;2022-11-20T13:47:47;47.03;;;23.30;;
14078;SDS011;7115;50.150;8.568;2022-11-20T13:50:19;38.13;;;20.67;;
14078;SDS011;7115;50.150;8.568;2022-11-20T13:53:00;38.97;;;19.67;;
14078;SDS011;7115;50.150;8.568;2022-11-20T13:55:35;32.60;;;18.33;;
14078;SDS011;7115;50.150;8.568;2022-11-20T13:58:17;36.40;;;19.37;;
14078;SDS011;7115;50.150;8.568;2022-11-20T14:00:52;36.37;;;20.40;;
14078;SDS011;7115;50.150;8.568;2022-11-20T14:03:24;38.23;;;20.07;;
14078;SDS011;7115;50.150;8.568;2022-11-20T14:06:19;35.83;;;19.67;;
14078;SDS011;7115;50.150;8.568;2022-11-20T14:08:52;31.33;;;17.83;;
14078;SDS011;7115;50.150;8.568;2022-11-20T14:11:20;34.20;;;17.90;;
14078;SDS011;7115;50.150;8.568;2022-11-20T14:13:54;38.73;;;20.00;;
14078;SDS011;7115;50.150;8.568;2022-11-20T14:16:24;35.40;;;18.53;;
14078;SDS011;7115;50.150;8.568;2022-11-20T14:18:53;36.10;;;19.43;;
14078;SDS011;7115;50.150;8.568;2022-11-20T14:21:24;35.63;;;18.60;;
14078;SDS011;7115;50.150;8.568;2022-11-20T14:23:52;35.47;;;20.07;;
14078;SDS011;7115;50.150;8.568;2022-11-20T14:26:20;32.07;;;18.67;;
14078;SDS011;7115;50.150;8.568;2022-11-20T14:28:47;33.63;;;18.53;;
14078;SDS011;7115;50.150;8.568;2022-11-20T14:31:19;35.07;;;19.17;;
14078;SDS011;7115;50.150;8.568;2022-11-20T14:33:50;37.73;;;18.97;;
14078;SDS011;7115;50.150;8.568;2022-11-20T14:36:20;35.87;;;18.77;;
14078;SDS011;7115;50.150;8.568;2022-11-20T14:38:51;31.87;;;16.77;;
14078;SDS011;7115;50.150;8.568;2022-11-20T14:41:20;31.40;;;17.43;;
14078;SDS011;7115;50.150;8.568;2022-11-20T14:43:49;36.53;;;18.87;;
14078;SDS011;7115;50.150;8.568;2022-11-20T14:46:21;32.57;;;18.40;;
14078;SDS011;7115;50.150;8.568;2022-11-20T14:48:49;34.57;;;18.67;;
14078;SDS011;7115;50.150;8.568;2022-11-20T14:51:24;38.87;;;20.23;;
14078;SDS011;7115;50.150;8.568;2022-11-20T14:53:59;30.90;;;16.93;;
14078;SDS011;7115;50.150;8.568;2022-11-20T14:56:34;33.00;;;17.37;;
14078;SDS011;7115;50.150;8.568;2022-11-20T14:59:03;31.80;;;17.80;;
14078;SDS011;7115;50.150;8.568;2022-11-20T15:01:31;34.33;;;18.63;;
14078;SDS011;7115;50.150;8.568;2022-11-20T15:04:00;34.93;;;17.80;;